Time;durP1;ratioP1;P1;durP2;ratioP2;P2;SDS_P1;SDS_P2;PMS_P1;PMS_P2;Temp;Humidity;BMP_temperature;BMP_pressure;BME280_temperature;BME280_humidity;BME280_pressure;Samples;Min_cycle;Max_cycle;Signal;HPM_P1;HPM_P2
2021/10/17 00:02:08;;;;;;;4.80;2.00;;;;;16.90;101887.00;;;;5051107;28;20608;-80
2021/10/17 00:04:35;;;;;;;4.00;2.38;;;;;16.90;101881.00;;;;5032371;28;20605;-80
2021/10/17 00:07:02;;;;;;;3.78;1.67;;;;;16.90;101885.00;;;;5031652;28;20203;-80
2021/10/17 00:09:31;;;;;;;2.85;2.00;;;;;16.80;101882.00;;;;5031710;28;20220;-80
2021/10/17 00:11:58;;;;;;;4.13;2.00;;;;;16.90;101878.00;;;;5031294;28;20207;-80
2021/10/17 00:14:25;;;;;;;2.80;1.70;;;;;16.90;101879.00;;;;5031764;28;20200;-80
2021/10/17 00:16:52;;;;;;;2.90;1.90;;;;;16.90;101876.00;;;;5046607;28;20203;-80
2021/10/17 00:19:20;;;;;;;3.83;2.08;;;;;16.90;101873.00;;;;5062440;28;20695;-80
2021/10/17 00:21:47;;;;;;;2.95;1.80;;;;;16.80;101879.00;;;;5031531;28;20200;-80
2021/10/17 00:24:14;;;;;;;3.70;1.92;;;;;16.80;101878.00;;;;5031179;28;20216;-80
2021/10/17 00:26:43;;;;;;;3.33;1.73;;;;;16.80;101876.00;;;;5031925;28;20207;-80
2021/10/17 00:29:10;;;;;;;4.35;2.38;;;;;16.80;101870.00;;;;5030817;28;20227;-80
2021/10/17 00:31:37;;;;;;;5.22;1.70;;;;;16.80;101875.00;;;;5031279;28;20207;-80
2021/10/17 00:34:05;;;;;;;2.78;1.95;;;;;16.80;101878.00;;;;5030827;28;20196;-80
2021/10/17 00:36:33;;;;;;;7.28;2.67;;;;;16.80;101873.00;;;;5034708;28;20737;-80
2021/10/17 00:39:01;;;;;;;2.60;1.40;;;;;16.80;101878.00;;;;5051258;28;20339;-80
2021/10/17 00:41:31;;;;;;;5.35;2.63;;;;;16.80;101871.00;;;;5050625;28;20200;-80
2021/10/17 00:44:01;;;;;;;4.82;1.98;;;;;16.80;101859.00;;;;5050932;28;20556;-80
2021/10/17 00:46:29;;;;;;;5.00;1.83;;;;;16.80;101870.00;;;;5051054;28;20533;-81
2021/10/17 00:48:57;;;;;;;3.65;2.03;;;;;16.80;101872.00;;;;5050634;28;20219;-80
2021/10/17 00:51:24;;;;;;;3.63;2.00;;;;;16.80;101862.00;;;;5050993;28;20203;-80
2021/10/17 00:53:51;;;;;;;4.35;2.05;;;;;16.80;101863.00;;;;5049967;28;20199;-80
2021/10/17 00:56:20;;;;;;;4.03;1.95;;;;;16.80;101863.00;;;;5050866;28;20214;-80
2021/10/17 00:58:48;;;;;;;4.07;1.85;;;;;16.80;101863.00;;;;5050391;28;20195;-80
2021/10/17 01:01:17;;;;;;;5.47;2.30;;;;;16.80;101860.00;;;;5050260;28;20678;-80
2021/10/17 01:03:44;;;;;;;3.08;2.13;;;;;16.80;101864.00;;;;5050948;28;20196;-80
2021/10/17 01:06:13;;;;;;;1.95;1.60;;;;;16.80;101854.00;;;;5051189;28;20200;-80
2021/10/17 01:08:40;;;;;;;5.85;1.75;;;;;16.70;101846.00;;;;5050168;28;20704;-80
2021/10/17 01:11:09;;;;;;;4.05;2.00;;;;;16.70;101855.00;;;;5042133;28;20595;-80
2021/10/17 01:13:36;;;;;;;3.55;1.90;;;;;16.70;101849.00;;;;5030635;28;20238;-80
2021/10/17 01:16:05;;;;;;;2.40;1.90;;;;;16.70;101850.00;;;;5029775;28;20291;-80
2021/10/17 01:18:33;;;;;;;6.68;3.03;;;;;16.70;101842.00;;;;5037380;28;20195;-81
2021/10/17 01:21:02;;;;;;;4.15;1.60;;;;;16.70;101842.00;;;;5050186;28;20203;-80
2021/10/17 01:23:29;;;;;;;7.07;2.15;;;;;16.70;101840.00;;;;5051293;28;20195;-80
2021/10/17 01:25:57;;;;;;;3.38;1.88;;;;;16.70;101841.00;;;;5050174;28;20195;-80
2021/10/17 01:28:24;;;;;;;4.22;2.20;;;;;16.70;101847.00;;;;5042773;28;20849;-80
2021/10/17 01:30:51;;;;;;;4.25;2.10;;;;;16.70;101836.00;;;;5029803;28;20212;-80
2021/10/17 01:33:19;;;;;;;2.45;1.73;;;;;16.70;101836.00;;;;5030286;28;20199;-81
2021/10/17 01:35:46;;;;;;;2.90;1.90;;;;;16.70;101837.00;;;;5030245;28;20203;-81
2021/10/17 01:38:15;;;;;;;6.88;2.17;;;;;16.60;101828.00;;;;5030902;28;20207;-81
2021/10/17 01:40:42;;;;;;;4.40;1.80;;;;;16.60;101836.00;;;;5029636;28;20239;-81
2021/10/17 01:43:09;;;;;;;4.85;2.20;;;;;16.60;101830.00;;;;5029445;28;20207;-81
2021/10/17 01:45:37;;;;;;;4.97;2.17;;;;;16.60;101827.00;;;;5042588;28;20286;-81
2021/10/17 01:48:04;;;;;;;2.33;1.50;;;;;16.60;101824.00;;;;5049550;28;20673;-80
2021/10/17 01:50:32;;;;;;;4.47;2.13;;;;;16.60;101820.00;;;;5050220;28;20227;-80
2021/10/17 01:52:59;;;;;;;5.80;1.95;;;;;16.60;101816.00;;;;5049641;28;20227;-80
2021/10/17 01:55:27;;;;;;;2.88;2.00;;;;;16.60;101813.00;;;;5049043;28;20249;-81
2021/10/17 01:57:55;;;;;;;3.45;2.05;;;;;16.60;101806.00;;;;5049292;28;20218;-81
2021/10/17 02:00:22;;;;;;;3.25;1.95;;;;;16.60;101815.00;;;;5048987;28;20665;-81
2021/10/17 02:02:49;;;;;;;5.55;1.85;;;;;16.50;101812.00;;;;5034006;28;20207;-81
2021/10/17 02:05:16;;;;;;;4.63;1.92;;;;;16.50;101818.00;;;;5030124;28;20216;-81
2021/10/17 02:07:44;;;;;;;2.53;2.03;;;;;16.50;101821.00;;;;5028836;28;20689;-81
2021/10/17 02:10:11;;;;;;;4.40;1.60;;;;;16.50;101821.00;;;;5029598;28;20235;-80
2021/10/17 02:12:39;;;;;;;4.05;1.63;;;;;16.50;101823.00;;;;5029262;28;20188;-81
2021/10/17 02:15:07;;;;;;;4.65;2.40;;;;;16.50;101823.00;;;;5029004;28;20204;-81
2021/10/17 02:17:35;;;;;;;4.03;1.98;;;;;16.50;101825.00;;;;5028811;28;20204;-80
2021/10/17 02:20:02;;;;;;;2.53;1.73;;;;;16.40;101826.00;;;;5043468;28;20200;-80
2021/10/17 02:22:29;;;;;;;3.25;1.80;;;;;16.40;101822.00;;;;5049323;28;20207;-80
2021/10/17 02:24:56;;;;;;;5.60;1.83;;;;;16.40;101829.00;;;;5048521;28;20195;-81
2021/10/17 02:27:24;;;;;;;4.00;2.13;;;;;16.40;101827.00;;;;5048776;28;20199;-81
2021/10/17 02:29:53;;;;;;;2.20;1.83;;;;;16.40;101822.00;;;;5048912;28;20227;-81
2021/10/17 02:32:20;;;;;;;4.40;2.25;;;;;16.40;101820.00;;;;5049489;28;20271;-81
2021/10/17 02:34:47;;;;;;;4.65;2.35;;;;;16.40;101823.00;;;;5048906;28;20203;-81
2021/10/17 02:37:14;;;;;;;3.00;1.80;;;;;16.30;101818.00;;;;5052730;28;20199;-80
2021/10/17 02:39:41;;;;;;;2.60;2.00;;;;;16.30;101812.00;;;;5056032;28;20779;-81
2021/10/17 02:42:09;;;;;;;4.13;1.58;;;;;16.30;101816.00;;;;5048433;28;20217;-81
2021/10/17 02:44:36;;;;;;;3.75;2.15;;;;;16.30;101805.00;;;;5049353;28;20207;-80
2021/10/17 02:47:05;;;;;;;2.90;2.05;;;;;16.20;101805.00;;;;5048572;28;20204;-80
2021/10/17 02:49:32;;;;;;;4.32;2.47;;;;;16.20;101810.00;;;;5048916;28;20226;-80
2021/10/17 02:51:59;;;;;;;3.05;2.25;;;;;16.20;101808.00;;;;5048290;28;20215;-80
2021/10/17 02:54:26;;;;;;;4.18;2.15;;;;;16.20;101797.00;;;;5029367;28;20204;-80
2021/10/17 02:56:53;;;;;;;3.38;2.20;;;;;16.20;101801.00;;;;5028137;28;20211;-81
2021/10/17 02:59:21;;;;;;;2.67;2.15;;;;;16.20;101797.00;;;;5035938;28;20548;-81
2021/10/17 03:01:48;;;;;;;5.18;2.70;;;;;16.20;101807.00;;;;5048145;28;20211;-80
2021/10/17 03:04:16;;;;;;;3.22;2.25;;;;;16.10;101800.00;;;;5047757;28;20199;-80
2021/10/17 03:06:44;;;;;;;5.32;2.28;;;;;16.10;101798.00;;;;5048252;28;20212;-81
2021/10/17 03:09:11;;;;;;;3.92;2.72;;;;;16.10;101796.00;;;;5047407;28;20223;-80
2021/10/17 03:11:38;;;;;;;2.08;1.83;;;;;16.10;101799.00;;;;5028673;28;20211;-80
2021/10/17 03:14:06;;;;;;;4.90;2.53;;;;;16.10;101798.00;;;;5027904;28;20199;-80
2021/10/17 03:16:33;;;;;;;3.88;2.55;;;;;16.10;101803.00;;;;5027529;28;20563;-81
2021/10/17 03:19:00;;;;;;;3.22;2.15;;;;;16.10;101801.00;;;;5027460;28;20741;-80
2021/10/17 03:21:29;;;;;;;2.72;2.38;;;;;16.10;101799.00;;;;5027714;28;20203;-81
2021/10/17 03:23:56;;;;;;;11.18;3.22;;;;;16.10;101792.00;;;;5027258;28;20197;-81
2021/10/17 03:26:23;;;;;;;3.50;2.08;;;;;16.00;101797.00;;;;5029551;28;20212;-80
2021/10/17 03:28:51;;;;;;;6.72;2.40;;;;;16.00;101790.00;;;;5047583;28;20200;-81
2021/10/17 03:31:18;;;;;;;4.97;2.42;;;;;16.00;101786.00;;;;5050034;28;20227;-81
2021/10/17 03:33:45;;;;;;;3.50;2.10;;;;;16.00;101785.00;;;;5051578;28;20191;-80
2021/10/17 03:36:12;;;;;;;3.33;2.30;;;;;16.00;101787.00;;;;5051929;28;20195;-81
2021/10/17 03:38:41;;;;;;;3.47;2.03;;;;;15.90;101785.00;;;;5052481;28;20195;-80
2021/10/17 03:41:08;;;;;;;5.28;2.42;;;;;15.90;101782.00;;;;5051211;28;21003;-81
2021/10/17 03:43:36;;;;;;;4.45;2.80;;;;;15.90;101790.00;;;;5051201;28;20815;-80
2021/10/17 03:46:03;;;;;;;4.72;3.20;;;;;15.80;101790.00;;;;5052369;28;20206;-81
2021/10/17 03:48:30;;;;;;;4.60;2.63;;;;;15.80;101791.00;;;;5059086;28;20199;-81
2021/10/17 03:50:57;;;;;;;5.90;2.28;;;;;15.80;101790.00;;;;5056339;28;20223;-81
2021/10/17 03:53:24;;;;;;;3.22;2.17;;;;;15.80;101796.00;;;;5052162;28;20471;-81
2021/10/17 03:55:53;;;;;;;4.10;2.40;;;;;15.80;101792.00;;;;5051648;28;20229;-81
2021/10/17 03:58:20;;;;;;;4.50;2.08;;;;;15.80;101791.00;;;;5052071;28;20644;-81
2021/10/17 04:00:47;;;;;;;2.95;2.28;;;;;15.70;101799.00;;;;5045566;28;20214;-81
2021/10/17 04:03:15;;;;;;;5.38;2.60;;;;;15.70;101790.00;;;;5031855;28;20200;-81
2021/10/17 04:05:42;;;;;;;5.38;2.88;;;;;15.70;101790.00;;;;5032200;28;20200;-81
2021/10/17 04:08:09;;;;;;;3.72;2.50;;;;;15.70;101784.00;;;;5031912;28;20204;-81
2021/10/17 04:10:36;;;;;;;7.03;3.22;;;;;15.70;101789.00;;;;5031894;28;20224;-80
2021/10/17 04:13:05;;;;;;;6.45;2.70;;;;;15.70;101782.00;;;;5031526;28;20200;-80
2021/10/17 04:15:35;;;;;;;3.28;2.15;;;;;15.70;101799.00;;;;5030685;28;20200;-81
2021/10/17 04:18:03;;;;;;;9.68;3.08;;;;;15.70;101794.00;;;;5031887;28;20200;-81
2021/10/17 04:20:30;;;;;;;3.80;2.55;;;;;15.70;101794.00;;;;5032043;28;20223;-80
2021/10/17 04:22:57;;;;;;;4.15;2.80;;;;;15.70;101789.00;;;;5031204;28;20211;-81
2021/10/17 04:25:25;;;;;;;7.10;2.50;;;;;15.70;101791.00;;;;5032307;28;20204;-81
2021/10/17 04:27:52;;;;;;;4.40;2.65;;;;;15.70;101792.00;;;;5030783;28;20204;-80
2021/10/17 04:30:20;;;;;;;3.92;2.38;;;;;15.70;101790.00;;;;5031779;28;20224;-81
2021/10/17 04:32:48;;;;;;;4.60;2.20;;;;;15.70;101786.00;;;;5031594;28;20200;-81
2021/10/17 04:35:15;;;;;;;3.38;2.53;;;;;15.70;101793.00;;;;5040689;28;20207;-80
2021/10/17 04:37:42;;;;;;;7.80;2.65;;;;;15.70;101788.00;;;;5051241;28;20587;-80
2021/10/17 04:40:11;;;;;;;7.13;2.88;;;;;15.70;101788.00;;;;5051317;28;20231;-80
2021/10/17 04:42:39;;;;;;;3.15;2.47;;;;;15.70;101788.00;;;;5049922;28;20302;-80
2021/10/17 04:45:08;;;;;;;4.80;2.33;;;;;15.70;101787.00;;;;5050350;28;20200;-80
2021/10/17 04:47:37;;;;;;;4.60;3.10;;;;;15.70;101791.00;;;;5050813;28;20207;-80
2021/10/17 04:50:05;;;;;;;4.43;2.78;;;;;15.70;101783.00;;;;5049570;28;20219;-80
2021/10/17 04:52:33;;;;;;;4.72;3.10;;;;;15.70;101791.00;;;;5049998;28;20242;-80
2021/10/17 04:55:00;;;;;;;6.07;3.13;;;;;15.70;101792.00;;;;5061636;28;20198;-80
2021/10/17 04:57:27;;;;;;;7.50;3.00;;;;;15.70;101793.00;;;;5051061;28;20215;-80
2021/10/17 04:59:54;;;;;;;4.30;2.85;;;;;15.70;101788.00;;;;5049508;28;20204;-81
2021/10/17 05:02:22;;;;;;;3.15;2.85;;;;;15.70;101785.00;;;;5049731;28;20199;-80
2021/10/17 05:04:50;;;;;;;6.25;3.47;;;;;15.70;101788.00;;;;5050333;28;20199;-80
2021/10/17 05:07:17;;;;;;;4.63;2.83;;;;;15.70;101789.00;;;;5050492;28;20199;-79
2021/10/17 05:09:45;;;;;;;4.15;2.90;;;;;15.80;101792.00;;;;5036411;28;20270;-80
2021/10/17 05:12:12;;;;;;;4.80;3.00;;;;;15.80;101796.00;;;;5029783;28;20200;-80
2021/10/17 05:14:39;;;;;;;5.82;2.83;;;;;15.80;101792.00;;;;5030485;28;20196;-80
2021/10/17 05:17:06;;;;;;;4.80;3.17;;;;;15.80;101804.00;;;;5029785;28;20204;-80
2021/10/17 05:19:34;;;;;;;3.95;3.13;;;;;15.80;101800.00;;;;5029878;28;20227;-79
2021/10/17 05:22:02;;;;;;;3.60;3.00;;;;;15.80;101798.00;;;;5029556;28;20204;-80
2021/10/17 05:24:30;;;;;;;8.18;3.40;;;;;15.80;101791.00;;;;5030065;28;20208;-81
2021/10/17 05:26:57;;;;;;;6.55;3.63;;;;;15.80;101792.00;;;;5043382;28;20215;-80
2021/10/17 05:29:24;;;;;;;4.78;2.97;;;;;15.80;101801.00;;;;5050171;28;20223;-80
2021/10/17 05:31:51;;;;;;;4.78;2.58;;;;;15.80;101805.00;;;;5048604;28;20258;-80
2021/10/17 05:34:19;;;;;;;6.25;2.78;;;;;15.80;101798.00;;;;5049513;28;20200;-80
2021/10/17 05:36:46;;;;;;;5.03;3.00;;;;;15.80;101799.00;;;;5049092;28;20696;-80
2021/10/17 05:39:14;;;;;;;4.97;3.25;;;;;15.80;101801.00;;;;5049655;28;20462;-80
2021/10/17 05:41:42;;;;;;;3.95;3.05;;;;;15.80;101805.00;;;;5048637;28;20229;-79
2021/10/17 05:44:09;;;;;;;3.75;2.80;;;;;15.80;101802.00;;;;5048460;28;20210;-80
2021/10/17 05:46:36;;;;;;;4.57;2.83;;;;;15.80;101807.00;;;;5049774;28;20194;-80
2021/10/17 05:49:03;;;;;;;3.28;2.97;;;;;15.80;101808.00;;;;5049668;28;20195;-80
2021/10/17 05:51:31;;;;;;;4.65;3.17;;;;;15.80;101810.00;;;;5049253;28;20231;-80
2021/10/17 05:53:58;;;;;;;8.00;3.80;;;;;15.80;101807.00;;;;5049438;28;20417;-80
2021/10/17 05:56:26;;;;;;;4.35;3.35;;;;;15.80;101803.00;;;;5049384;28;20208;-81
2021/10/17 05:58:54;;;;;;;6.82;3.63;;;;;15.80;101796.00;;;;5049067;28;20206;-81
2021/10/17 06:01:21;;;;;;;4.45;3.67;;;;;15.80;101805.00;;;;5058939;28;20199;-81
2021/10/17 06:03:48;;;;;;;5.90;3.42;;;;;15.80;101811.00;;;;5049279;28;20199;-81
2021/10/17 06:06:15;;;;;;;4.53;3.40;;;;;15.80;101812.00;;;;5049838;28;20204;-80
2021/10/17 06:08:42;;;;;;;5.65;3.47;;;;;15.80;101817.00;;;;5049781;28;20230;-80
2021/10/17 06:11:10;;;;;;;5.35;4.00;;;;;15.80;101833.00;;;;5048775;28;20223;-80
2021/10/17 06:13:39;;;;;;;4.30;3.53;;;;;15.70;101830.00;;;;5049626;28;20191;-81
2021/10/17 06:16:06;;;;;;;4.50;4.03;;;;;15.80;101826.00;;;;5048641;28;20192;-81
2021/10/17 06:18:34;;;;;;;3.70;3.08;;;;;15.80;101813.00;;;;5042180;28;20215;-80
2021/10/17 06:21:02;;;;;;;5.75;3.47;;;;;15.70;101823.00;;;;5047908;28;20208;-81
2021/10/17 06:23:29;;;;;;;7.03;3.53;;;;;15.70;101833.00;;;;5049076;28;20208;-80
2021/10/17 06:25:56;;;;;;;4.97;3.15;;;;;15.80;101839.00;;;;5049000;28;20736;-81
2021/10/17 06:28:23;;;;;;;4.30;3.65;;;;;15.80;101842.00;;;;5049416;28;20211;-81
2021/10/17 06:30:52;;;;;;;6.38;3.88;;;;;15.70;101842.00;;;;5048692;28;20245;-81
2021/10/17 06:33:19;;;;;;;4.20;3.05;;;;;15.80;101847.00;;;;5047148;28;20198;-80
2021/10/17 06:35:47;;;;;;;4.72;3.47;;;;;15.80;101848.00;;;;5029153;28;20196;-80
2021/10/17 06:38:14;;;;;;;6.90;3.38;;;;;15.80;101843.00;;;;5029695;28;20200;-81
2021/10/17 06:40:41;;;;;;;4.30;3.35;;;;;15.80;101846.00;;;;5028558;28;20232;-80
2021/10/17 06:43:08;;;;;;;3.70;3.13;;;;;15.80;101848.00;;;;5028672;28;20204;-81
2021/10/17 06:45:36;;;;;;;11.68;4.47;;;;;15.80;101852.00;;;;5029493;28;20188;-81
2021/10/17 06:48:05;;;;;;;6.85;3.70;;;;;15.80;101849.00;;;;5028886;28;20195;-80
2021/10/17 06:50:32;;;;;;;4.35;3.55;;;;;15.80;101848.00;;;;5030126;28;20231;-81
2021/10/17 06:52:59;;;;;;;6.00;3.70;;;;;15.80;101850.00;;;;5027791;28;20208;-80
2021/10/17 06:55:26;;;;;;;5.57;3.72;;;;;15.80;101849.00;;;;5029337;28;20204;-81
2021/10/17 06:57:54;;;;;;;6.32;3.53;;;;;15.80;101849.00;;;;5028940;28;20216;-81
2021/10/17 07:00:21;;;;;;;4.50;3.47;;;;;15.80;101848.00;;;;5041086;28;20198;-80
2021/10/17 07:02:48;;;;;;;8.60;3.95;;;;;15.80;101855.00;;;;5047927;28;20196;-80
2021/10/17 07:05:17;;;;;;;4.50;3.38;;;;;15.80;101848.00;;;;5048550;28;20206;-81
2021/10/17 07:07:44;;;;;;;6.03;4.22;;;;;15.90;101856.00;;;;5043333;28;20212;-81
2021/10/17 07:10:11;;;;;;;8.32;3.80;;;;;15.90;101848.00;;;;5028847;28;20211;-81
2021/10/17 07:12:38;;;;;;;4.28;3.75;;;;;15.90;101855.00;;;;5060136;28;20683;-80
2021/10/17 07:15:06;;;;;;;10.23;4.72;;;;;15.90;101859.00;;;;5047939;28;20195;-81
2021/10/17 07:17:35;;;;;;;6.65;3.53;;;;;15.90;101852.00;;;;5036145;28;20204;-81
2021/10/17 07:20:02;;;;;;;7.47;3.67;;;;;15.90;101853.00;;;;5028697;28;20196;-80
2021/10/17 07:22:31;;;;;;;6.18;3.90;;;;;15.90;101853.00;;;;5028474;28;20204;-81
2021/10/17 07:24:58;;;;;;;5.45;3.88;;;;;15.90;101851.00;;;;5028223;28;20276;-80
2021/10/17 07:27:26;;;;;;;4.68;3.42;;;;;15.90;101858.00;;;;5028546;28;20219;-81
2021/10/17 07:29:53;;;;;;;5.93;3.88;;;;;16.00;101857.00;;;;5027909;28;20200;-81
2021/10/17 07:32:20;;;;;;;6.70;4.05;;;;;16.00;101863.00;;;;5028117;28;20231;-81
2021/10/17 07:34:48;;;;;;;5.80;3.85;;;;;16.00;101858.00;;;;5028486;28;20197;-81
2021/10/17 07:37:15;;;;;;;6.00;3.88;;;;;16.10;101863.00;;;;5028533;28;20193;-81
2021/10/17 07:39:44;;;;;;;4.72;3.58;;;;;16.10;101859.00;;;;5028691;28;20231;-80
2021/10/17 07:42:11;;;;;;;5.47;3.47;;;;;16.10;101858.00;;;;5027749;28;20208;-81
2021/10/17 07:44:38;;;;;;;5.32;3.78;;;;;16.20;101865.00;;;;5026950;28;20585;-81
2021/10/17 07:47:06;;;;;;;6.32;3.58;;;;;16.20;101865.00;;;;5025242;28;20200;-81
2021/10/17 07:49:33;;;;;;;4.32;3.75;;;;;16.20;101869.00;;;;5026427;28;20300;-81
2021/10/17 07:52:00;;;;;;;4.40;3.25;;;;;16.20;101865.00;;;;5026109;28;20229;-81
2021/10/17 07:54:27;;;;;;;5.28;3.35;;;;;16.30;101874.00;;;;5026543;28;20192;-81
2021/10/17 07:56:56;;;;;;;5.75;4.55;;;;;16.30;101863.00;;;;5025871;28;20266;-81
2021/10/17 07:59:23;;;;;;;5.15;3.90;;;;;16.30;101873.00;;;;5032141;28;20192;-81
2021/10/17 08:01:50;;;;;;;4.75;3.65;;;;;16.30;101872.00;;;;5047513;28;20195;-81
2021/10/17 08:04:18;;;;;;;7.45;3.55;;;;;16.30;101870.00;;;;5047981;28;20265;-81
2021/10/17 08:06:45;;;;;;;3.42;3.03;;;;;16.40;101870.00;;;;5047870;28;20196;-81
2021/10/17 08:09:12;;;;;;;6.10;3.78;;;;;16.40;101862.00;;;;5048037;28;20588;-81
2021/10/17 08:11:39;;;;;;;6.93;3.75;;;;;16.40;101859.00;;;;5047838;28;20231;-81
2021/10/17 08:14:08;;;;;;;6.47;3.08;;;;;16.50;101860.00;;;;5048080;28;20207;-80
2021/10/17 08:16:35;;;;;;;10.52;3.70;;;;;16.50;101864.00;;;;5035701;28;20196;-80
2021/10/17 08:19:04;;;;;;;5.63;4.45;;;;;16.50;101869.00;;;;5030329;28;20741;-80
2021/10/17 08:21:32;;;;;;;6.90;3.80;;;;;16.60;101875.00;;;;5050902;28;20206;-81
2021/10/17 08:23:59;;;;;;;6.97;4.25;;;;;16.60;101874.00;;;;5055907;28;20200;-81
2021/10/17 08:26:27;;;;;;;6.75;3.20;;;;;16.60;101870.00;;;;5051036;28;20214;-81
2021/10/17 08:28:54;;;;;;;6.07;4.05;;;;;16.70;101873.00;;;;5050994;28;20298;-81
2021/10/17 08:31:23;;;;;;;7.43;3.50;;;;;16.70;101875.00;;;;5051371;28;20231;-80
2021/10/17 08:33:50;;;;;;;8.35;3.78;;;;;16.70;101876.00;;;;5036288;28;20689;-81
2021/10/17 08:36:17;;;;;;;6.05;3.55;;;;;16.80;101877.00;;;;5031536;28;20208;-81
2021/10/17 08:38:45;;;;;;;6.13;3.70;;;;;16.80;101878.00;;;;5031511;28;20207;-81
2021/10/17 08:41:15;;;;;;;5.55;3.22;;;;;16.80;101878.00;;;;5031303;28;20235;-81
2021/10/17 08:43:42;;;;;;;5.40;3.42;;;;;16.90;101873.00;;;;5031055;28;20291;-81
2021/10/17 08:46:11;;;;;;;7.70;4.00;;;;;16.90;101878.00;;;;5031211;28;20212;-81
2021/10/17 08:48:42;;;;;;;4.82;3.47;;;;;16.90;101880.00;;;;5031375;28;20275;-81
2021/10/17 08:51:09;;;;;;;5.90;3.67;;;;;17.00;101869.00;;;;5031794;28;20228;-81
2021/10/17 08:53:37;;;;;;;6.40;4.00;;;;;17.00;101865.00;;;;5031225;28;20211;-80
2021/10/17 08:56:04;;;;;;;7.45;3.90;;;;;17.00;101873.00;;;;5030902;28;20200;-82
2021/10/17 08:58:32;;;;;;;6.22;3.70;;;;;17.10;101876.00;;;;5030099;28;20459;-81
2021/10/17 09:01:11;;;;;;;4.03;3.28;;;;;17.00;101872.00;;;;5046519;28;20203;-81
2021/10/17 09:03:40;;;;;;;7.93;4.00;;;;;17.10;101870.00;;;;5050758;28;20231;-81
2021/10/17 09:06:17;;;;;;;5.60;3.42;;;;;17.10;101869.00;;;;5050119;28;20204;-81
2021/10/17 09:08:44;;;;;;;6.38;3.60;;;;;17.20;101875.00;;;;5031545;28;20577;-81
2021/10/17 09:11:12;;;;;;;5.32;3.75;;;;;17.30;101870.00;;;;5030256;28;20246;-80
2021/10/17 09:14:04;;;;;;;6.53;4.30;;;;;17.20;101881.00;;;;5030845;28;20212;-81
2021/10/17 09:16:35;;;;;;;10.63;3.55;;;;;17.30;101879.00;;;;5030693;28;20670;-81
2021/10/17 09:19:14;;;;;;;6.30;3.67;;;;;17.30;101882.00;;;;5030258;28;20216;-81
2021/10/17 09:22:04;;;;;;;6.00;3.97;;;;;17.40;101887.00;;;;5030905;28;20243;-81
2021/10/17 09:24:36;;;;;;;5.88;3.42;;;;;17.50;101889.00;;;;5030950;28;20221;-81
2021/10/17 09:27:12;;;;;;;3.90;3.08;;;;;17.50;101886.00;;;;5041953;28;20200;-81
2021/10/17 09:29:41;;;;;;;6.40;3.80;;;;;17.60;101888.00;;;;5056920;28;20199;-81
2021/10/17 09:32:12;;;;;;;6.72;4.55;;;;;17.60;101886.00;;;;5050683;28;20534;-81
2021/10/17 09:34:41;;;;;;;6.50;3.72;;;;;17.70;101886.00;;;;5050505;28;20203;-81
2021/10/17 09:37:10;;;;;;;6.68;4.10;;;;;17.70;101880.00;;;;5050833;28;20212;-81
2021/10/17 09:39:40;;;;;;;6.03;3.83;;;;;17.80;101886.00;;;;5049871;28;21889;-81
2021/10/17 09:42:08;;;;;;;4.97;3.90;;;;;17.80;101887.00;;;;5032733;28;20298;-81
2021/10/17 09:44:40;;;;;;;7.97;3.25;;;;;17.80;101889.00;;;;5030401;28;20231;-81
2021/10/17 09:47:07;;;;;;;7.18;4.47;;;;;17.80;101885.00;;;;5029348;28;20211;-82
2021/10/17 09:49:35;;;;;;;8.93;4.18;;;;;17.90;101885.00;;;;5029912;28;20204;-81
2021/10/17 09:52:18;;;;;;;4.60;3.38;;;;;17.80;101885.00;;;;5029535;28;20686;-81
2021/10/17 09:54:46;;;;;;;4.97;3.60;;;;;17.90;101891.00;;;;5030157;28;20227;-82
2021/10/17 09:57:14;;;;;;;6.30;3.65;;;;;18.00;101892.00;;;;5029987;28;20219;-81
2021/10/17 09:59:41;;;;;;;5.18;3.40;;;;;18.00;101885.00;;;;5033538;28;20204;-81
2021/10/17 10:02:11;;;;;;;4.78;3.58;;;;;18.10;101890.00;;;;5049675;28;20253;-81
2021/10/17 10:04:40;;;;;;;7.65;4.32;;;;;18.10;101887.00;;;;5049622;28;20204;-81
2021/10/17 10:07:08;;;;;;;5.72;3.97;;;;;18.20;101879.00;;;;5049330;28;20294;-82
2021/10/17 10:09:38;;;;;;;4.70;3.42;;;;;18.30;101887.00;;;;5049431;28;20231;-81
2021/10/17 10:12:07;;;;;;;4.95;3.75;;;;;18.40;101883.00;;;;5048613;28;20223;-81
2021/10/17 10:14:34;;;;;;;5.32;3.60;;;;;18.40;101882.00;;;;5045309;28;20215;-81
2021/10/17 10:17:03;;;;;;;6.57;4.00;;;;;18.50;101887.00;;;;5029303;28;20216;-81
2021/10/17 10:19:33;;;;;;;6.40;4.57;;;;;18.50;101888.00;;;;5028881;28;20227;-81
2021/10/17 10:22:00;;;;;;;7.47;3.92;;;;;18.60;101894.00;;;;5029245;28;20234;-80
2021/10/17 10:24:31;;;;;;;7.68;3.42;;;;;18.70;101896.00;;;;5029423;28;20558;-81
2021/10/17 10:27:00;;;;;;;6.72;4.43;;;;;18.70;101894.00;;;;5029665;28;20200;-81
2021/10/17 10:29:29;;;;;;;3.95;3.25;;;;;18.80;101899.00;;;;5029668;28;20193;-81
2021/10/17 10:31:58;;;;;;;6.20;3.63;;;;;18.80;101900.00;;;;5029652;28;20231;-81
2021/10/17 10:34:54;;;;;;;5.35;3.83;;;;;18.80;101899.00;;;;5028683;28;20200;-81
2021/10/17 10:37:23;;;;;;;4.78;3.55;;;;;18.90;101890.00;;;;5043276;28;20196;-81
2021/10/17 10:40:15;;;;;;;6.93;3.70;;;;;18.90;101888.00;;;;5062048;28;20223;-81
2021/10/17 10:42:46;;;;;;;6.22;3.67;;;;;19.20;101891.00;;;;5068961;28;20210;-81
2021/10/17 10:45:25;;;;;;;6.10;3.97;;;;;19.30;101890.00;;;;5068720;28;20238;-81
2021/10/17 10:48:17;;;;;;;5.90;4.13;;;;;19.40;101889.00;;;;5068489;28;20201;-82
2021/10/17 10:50:47;;;;;;;6.45;3.63;;;;;19.60;101887.00;;;;5028833;28;20257;-82
2021/10/17 10:53:41;;;;;;;5.05;3.33;;;;;19.70;101884.00;;;;5028580;28;20570;-81
2021/10/17 10:56:08;;;;;;;5.10;3.47;;;;;19.80;101879.00;;;;5028123;28;20212;-81
2021/10/17 10:58:53;;;;;;;5.40;4.07;;;;;19.80;101872.00;;;;5028900;28;20610;-81
2021/10/17 11:01:54;;;;;;;7.93;3.97;;;;;19.80;101882.00;;;;5046330;28;20203;-81
2021/10/17 11:04:55;;;;;;;4.78;3.50;;;;;19.90;101883.00;;;;5048704;28;20203;-81
2021/10/17 11:07:24;;;;;;;4.28;3.15;;;;;20.10;101877.00;;;;5029894;28;20205;-82
2021/10/17 11:09:53;;;;;;;9.13;3.70;;;;;20.20;101886.00;;;;5028627;28;20192;-81
2021/10/17 11:12:43;;;;;;;6.50;3.42;;;;;20.20;101885.00;;;;5028870;28;20231;-82
2021/10/17 11:15:14;;;;;;;4.18;3.05;;;;;20.40;101884.00;;;;5028712;28;20208;-81
2021/10/17 11:17:50;;;;;;;7.78;4.22;;;;;20.50;101874.00;;;;5028281;28;20196;-80
2021/10/17 11:20:20;;;;;;;4.50;3.30;;;;;20.70;101880.00;;;;5029174;28;20215;-81
2021/10/17 11:22:48;;;;;;;4.47;3.60;;;;;20.80;101883.00;;;;5029352;28;20219;-81
2021/10/17 11:25:16;;;;;;;6.95;3.28;;;;;20.90;101881.00;;;;5029033;28;20239;-81
2021/10/17 11:27:44;;;;;;;4.72;3.40;;;;;21.00;101872.00;;;;5028168;28;20201;-82
2021/10/17 11:30:22;;;;;;;4.68;3.25;;;;;21.00;101869.00;;;;5028027;28;20680;-81
2021/10/17 11:32:50;;;;;;;4.55;2.83;;;;;21.10;101870.00;;;;5028517;28;20223;-81
2021/10/17 11:35:25;;;;;;;4.07;3.30;;;;;21.20;101869.00;;;;5028998;28;20574;-81
2021/10/17 11:37:53;;;;;;;5.88;3.30;;;;;21.20;101871.00;;;;5029058;28;20203;-81
2021/10/17 11:40:20;;;;;;;4.30;3.10;;;;;21.20;101870.00;;;;5037630;28;20243;-82
2021/10/17 11:42:49;;;;;;;3.72;3.20;;;;;21.20;101858.00;;;;5028611;28;20200;-81
2021/10/17 11:45:20;;;;;;;4.90;3.28;;;;;21.20;101861.00;;;;5028684;28;20201;-80
2021/10/17 11:47:49;;;;;;;6.53;3.05;;;;;21.20;101854.00;;;;5034879;28;20230;-81
2021/10/17 11:50:21;;;;;;;5.15;2.95;;;;;21.20;101856.00;;;;5058759;28;20188;-81
2021/10/17 11:52:53;;;;;;;4.78;3.22;;;;;21.20;101871.00;;;;5049915;28;20714;-82
2021/10/17 11:55:38;;;;;;;5.15;3.95;;;;;21.00;101858.00;;;;5052317;28;20571;-81
2021/10/17 11:58:12;;;;;;;4.65;3.17;;;;;21.10;101851.00;;;;5034842;28;20228;-81
2021/10/17 12:00:41;;;;;;;4.43;3.25;;;;;21.10;101856.00;;;;5043037;28;20281;-82
2021/10/17 12:03:09;;;;;;;6.28;3.15;;;;;21.10;101851.00;;;;5050832;28;20202;-81
2021/10/17 12:05:43;;;;;;;7.90;3.60;;;;;21.10;101849.00;;;;5052077;28;20191;-81
2021/10/17 12:08:19;;;;;;;4.20;3.60;;;;;21.00;101848.00;;;;5052225;28;20206;-81
2021/10/17 12:10:55;;;;;;;6.18;3.75;;;;;20.90;101844.00;;;;5051261;28;20199;-81
2021/10/17 12:13:23;;;;;;;3.53;2.92;;;;;21.00;101845.00;;;;5049481;28;20236;-81
2021/10/17 12:16:02;;;;;;;5.88;3.35;;;;;20.90;101841.00;;;;5031623;28;20199;-81
2021/10/17 12:18:30;;;;;;;5.05;3.42;;;;;21.00;101842.00;;;;5031593;28;20716;-81